createdAt,value
2022-12-22T00:00:05.633Z,99904.38
2022-12-22T00:02:35.812Z,99902.78
2022-12-22T00:05:09.598Z,99899.66
2022-12-22T00:07:39.554Z,99892.94
2022-12-22T00:10:09.865Z,99896.75
2022-12-22T00:12:40.280Z,99899.56
2022-12-22T00:15:11.033Z,99902.00
2022-12-22T00:17:41.064Z,99896.75
2022-12-22T00:20:18.695Z,99900.03
2022-12-22T00:22:48.817Z,99893.13
2022-12-22T00:25:19.873Z,99889.66
2022-12-22T00:27:49.783Z,99890.50
2022-12-22T00:30:20.566Z,99883.41
2022-12-22T00:32:51.353Z,99891.13
2022-12-22T00:35:24.493Z,99890.31
2022-12-22T00:37:54.430Z,99892.94
2022-12-22T00:40:26.629Z,99904.75
2022-12-22T00:42:56.588Z,99899.47
2022-12-22T00:45:26.666Z,99901.13
2022-12-22T00:47:56.708Z,99904.59
2022-12-22T00:50:31.216Z,99906.03
2022-12-22T00:53:02.355Z,99904.03
2022-12-22T00:55:34.144Z,99891.88
2022-12-22T00:58:04.844Z,99900.59
2022-12-22T01:00:34.825Z,99893.50
2022-12-22T01:03:04.949Z,99885.59
2022-12-22T01:05:35.146Z,99889.06
2022-12-22T01:08:05.410Z,99894.50
2022-12-22T01:10:35.577Z,99888.56
2022-12-22T01:13:05.526Z,99891.22
2022-12-22T01:15:35.558Z,99887.75
2022-12-22T01:18:05.574Z,99885.31
2022-12-22T01:20:35.644Z,99881.06
2022-12-22T01:23:05.578Z,99886.50
2022-12-22T01:25:35.630Z,99879.59
2022-12-22T01:28:05.598Z,99882.13
2022-12-22T01:30:35.617Z,99878.69
2022-12-22T01:33:05.708Z,99881.66
2022-12-22T01:35:37.240Z,99879.84
2022-12-22T01:38:07.149Z,99883.50
2022-12-22T01:40:37.228Z,99895.66
2022-12-22T01:43:21.711Z,99900.91
2022-12-22T01:45:51.783Z,99908.81
2022-12-22T01:48:23.297Z,99903.53
2022-12-22T01:50:53.370Z,99902.53
2022-12-22T01:53:26.663Z,99900.75
2022-12-22T01:55:57.036Z,99901.09
2022-12-22T01:58:30.476Z,99903.25
2022-12-22T02:01:00.419Z,99906.09
2022-12-22T02:03:30.394Z,99906.25
2022-12-22T02:06:08.882Z,99904.63
2022-12-22T02:08:45.718Z,99901.38
2022-12-22T02:11:18.781Z,99910.25
2022-12-22T02:13:51.945Z,99907.78
2022-12-22T02:16:26.051Z,99915.84
2022-12-22T02:18:59.220Z,99915.03
2022-12-22T02:21:32.246Z,99919.50
2022-12-22T02:24:05.364Z,99918.84
2022-12-22T02:26:37.706Z,99915.41
2022-12-22T02:29:08.589Z,99929.75
2022-12-22T02:31:41.012Z,99926.09
2022-12-22T02:34:14.148Z,99926.75
2022-12-22T02:36:47.284Z,99923.47
2022-12-22T02:39:20.419Z,99924.81
2022-12-22T02:41:57.865Z,99929.09
2022-12-22T02:44:30.822Z,99932.72
2022-12-22T02:47:02.161Z,99932.09
2022-12-22T02:49:38.900Z,99926.63
2022-12-22T02:52:14.134Z,99932.88
2022-12-22T02:54:44.096Z,99921.72
2022-12-22T02:57:14.033Z,99918.28
2022-12-22T02:59:44.200Z,99922.06
2022-12-22T03:02:14.662Z,99941.31
2022-12-22T03:04:44.842Z,99931.97
2022-12-22T03:07:14.786Z,99945.94
2022-12-22T03:09:44.741Z,99949.19
2022-12-22T03:12:14.728Z,99958.91
2022-12-22T03:14:44.688Z,99955.66
2022-12-22T03:17:14.753Z,99948.56
2022-12-22T03:19:44.730Z,99952.03
2022-12-22T03:22:14.760Z,99952.84
2022-12-22T03:24:44.671Z,99962.72
2022-12-22T03:27:11.701Z,99962.88
2022-12-22T03:29:38.582Z,99972.78
2022-12-22T03:32:05.714Z,99986.91
2022-12-22T03:34:32.564Z,100001.88
2022-12-22T03:36:59.545Z,99995.97
2022-12-22T03:39:26.512Z,100007.66
2022-12-22T03:41:56.496Z,100004.22
2022-12-22T03:44:26.353Z,100012.28
2022-12-22T03:46:53.363Z,100016.09
2022-12-22T03:49:22.606Z,100016.09
2022-12-22T03:51:51.329Z,100018.06
2022-12-22T03:54:19.417Z,100037.66
2022-12-22T03:56:46.927Z,100034.19
2022-12-22T03:59:14.330Z,100036.63
2022-12-22T04:01:43.118Z,100026.16
2022-12-22T04:04:10.988Z,100046.75
2022-12-22T04:06:37.913Z,100051.19
2022-12-22T04:09:04.822Z,100044.94
2022-12-22T04:11:34.781Z,100029.16
2022-12-22T04:14:01.923Z,100026.53
2022-12-22T04:16:29.099Z,100019.44
2022-12-22T04:18:56.302Z,100037.88
2022-12-22T04:21:23.128Z,100023.06
2022-12-22T04:23:51.539Z,100030.97
2022-12-22T04:26:19.641Z,100019.63
2022-12-22T04:28:46.981Z,100030.75
2022-12-22T04:31:14.002Z,100019.16
2022-12-22T04:33:40.853Z,100014.88
2022-12-22T04:36:08.201Z,100018.50
2022-12-22T04:38:35.459Z,100017.66
2022-12-22T04:41:02.601Z,100016.53
2022-12-22T04:43:29.468Z,100024.56
2022-12-22T04:45:57.034Z,100034.44
2022-12-22T04:48:24.347Z,100025.09
2022-12-22T04:50:53.062Z,100032.66
2022-12-22T04:53:20.588Z,100038.75
2022-12-22T04:55:48.588Z,100042.00
2022-12-22T04:58:15.935Z,100036.13
2022-12-22T05:00:43.064Z,100027.41
2022-12-22T05:03:10.367Z,100038.91
2022-12-22T05:05:37.373Z,100042.06
2022-12-22T05:08:04.981Z,100040.56
2022-12-22T05:10:31.822Z,100037.31
2022-12-22T05:12:58.740Z,100040.75
2022-12-22T05:15:27.071Z,100032.88
2022-12-22T05:17:54.198Z,100046.81
2022-12-22T05:20:21.543Z,100037.94
2022-12-22T05:22:48.457Z,100038.13
2022-12-22T05:25:16.993Z,100027.63
2022-12-22T05:27:44.964Z,100031.38
2022-12-22T05:30:12.227Z,100042.88
2022-12-22T05:32:39.276Z,100059.81
2022-12-22T05:35:07.063Z,100059.13
2022-12-22T05:37:34.195Z,100060.13
2022-12-22T05:40:01.074Z,100050.63
2022-12-22T05:42:31.150Z,100054.56
2022-12-22T05:44:58.019Z,100048.97
2022-12-22T05:47:24.864Z,100043.91
2022-12-22T05:49:51.708Z,100051.97
2022-12-22T05:52:18.581Z,100039.63
2022-12-22T05:54:45.545Z,100031.75
2022-12-22T05:57:12.391Z,100034.53
2022-12-22T05:59:39.402Z,100031.09
2022-12-22T06:02:06.440Z,100033.25
2022-12-22T06:04:33.660Z,100041.28
2022-12-22T06:07:00.506Z,100035.72
2022-12-22T06:09:27.461Z,100039.31
2022-12-22T06:11:54.289Z,100038.69
2022-12-22T06:14:21.253Z,100053.63
2022-12-22T06:16:48.100Z,100058.88
2022-12-22T06:19:14.939Z,100060.84
2022-12-22T06:21:41.740Z,100059.22
2022-12-22T06:24:08.788Z,100046.09
2022-12-22T06:26:35.626Z,100046.41
2022-12-22T06:29:02.582Z,100043.94
2022-12-22T06:31:29.570Z,100059.38
2022-12-22T06:33:56.615Z,100053.47
2022-12-22T06:36:23.463Z,100063.16
2022-12-22T06:38:50.279Z,100071.84
2022-12-22T06:41:37.055Z,100073.66
2022-12-22T06:44:04.105Z,100070.41
2022-12-22T06:46:31.128Z,100065.66
2022-12-22T06:48:57.986Z,100064.81
2022-12-22T06:51:24.907Z,100064.97
2022-12-22T06:53:53.074Z,100077.13
2022-12-22T06:56:20.023Z,100069.88
2022-12-22T06:58:46.836Z,100061.22
2022-12-22T07:01:13.721Z,100054.47
2022-12-22T07:03:40.678Z,100046.75
2022-12-22T07:06:07.902Z,100048.41
2022-12-22T07:08:34.750Z,100046.25
2022-12-22T07:11:01.723Z,100042.16
2022-12-22T07:13:30.541Z,100041.50
2022-12-22T07:16:01.205Z,100043.81
2022-12-22T07:18:30.111Z,100049.41
2022-12-22T07:20:57.320Z,100041.88
2022-12-22T07:23:24.820Z,100046.09
2022-12-22T07:25:51.936Z,100046.78
2022-12-22T07:28:21.139Z,100050.88
2022-12-22T07:30:49.979Z,100047.44
2022-12-22T07:33:17.378Z,100054.16
2022-12-22T07:35:44.337Z,100047.44
2022-12-22T07:38:11.242Z,100056.31
2022-12-22T07:40:43.124Z,100055.47
2022-12-22T07:43:11.309Z,100050.38
2022-12-22T07:45:38.439Z,100042.03
2022-12-22T07:48:25.221Z,100050.06
2022-12-22T07:50:52.175Z,100058.28
2022-12-22T07:53:19.068Z,100054.34
2022-12-22T07:55:46.012Z,100057.94
2022-12-22T07:58:12.845Z,100050.22
2022-12-22T08:00:39.746Z,100055.47
2022-12-22T08:03:06.920Z,100055.47
2022-12-22T08:05:33.950Z,100057.78
2022-12-22T08:08:00.990Z,100055.97
2022-12-22T08:10:27.804Z,100043.00
2022-12-22T08:12:55.330Z,100054.19
2022-12-22T08:15:22.279Z,100049.56
2022-12-22T08:17:49.189Z,100042.50
2022-12-22T08:20:16.278Z,100024.31
2022-12-22T08:22:43.243Z,100025.28
2022-12-22T08:25:10.179Z,100020.69
2022-12-22T08:27:40.752Z,100024.31
2022-12-22T08:30:08.309Z,100015.63
2022-12-22T08:32:36.662Z,100005.75
2022-12-22T08:35:04.666Z,100004.47
2022-12-22T08:37:34.022Z,100007.41
2022-12-22T08:40:03.251Z,100004.28
2022-12-22T08:42:30.753Z,100015.25
2022-12-22T08:44:57.678Z,100006.41
2022-12-22T08:47:24.719Z,100006.22
2022-12-22T08:49:51.721Z,100008.06
2022-12-22T08:52:19.392Z,100010.47
2022-12-22T08:54:47.066Z,100006.72
2022-12-22T08:57:14.018Z,99998.50
2022-12-22T08:59:40.912Z,99995.56
2022-12-22T09:02:07.920Z,99999.16
2022-12-22T09:04:35.395Z,99983.22
2022-12-22T09:07:03.954Z,99986.66
2022-12-22T09:09:33.093Z,99989.13
2022-12-22T09:12:00.279Z,99983.53
2022-12-22T09:14:27.957Z,99992.22
2022-12-22T09:16:55.073Z,99976.31
2022-12-22T09:19:22.450Z,99974.50
2022-12-22T09:21:49.625Z,99986.47
2022-12-22T09:24:16.807Z,99988.13
2022-12-22T09:26:43.918Z,99991.41
2022-12-22T09:29:10.961Z,99988.44
2022-12-22T09:31:38.008Z,99985.28
2022-12-22T09:34:04.997Z,99976.25
2022-12-22T09:36:32.267Z,99979.38
2022-12-22T09:38:59.132Z,99977.41
2022-12-22T09:41:26.505Z,99968.69
2022-12-22T09:43:53.668Z,99961.13
2022-12-22T09:46:23.881Z,99957.97
2022-12-22T09:48:51.263Z,99962.06
2022-12-22T09:51:26.171Z,99954.50
2022-12-22T09:53:57.388Z,99955.00
2022-12-22T09:56:25.710Z,99952.84
2022-12-22T09:58:52.664Z,99946.22
2022-12-22T10:01:22.780Z,99951.78
2022-12-22T10:03:59.924Z,99939.13
2022-12-22T10:06:30.751Z,99929.09
2022-12-22T10:09:05.371Z,99943.34
2022-12-22T10:11:33.323Z,99927.03
2022-12-22T10:14:00.299Z,99929.81
2022-12-22T10:16:28.893Z,99923.03
2022-12-22T10:18:58.522Z,99922.31
2022-12-22T10:21:26.633Z,99921.78
2022-12-22T10:23:53.930Z,99910.53
2022-12-22T10:26:31.453Z,99907.22
2022-12-22T10:28:59.245Z,99917.66
2022-12-22T10:31:28.203Z,99903.16
2022-12-22T10:33:56.645Z,99905.88
2022-12-22T10:36:26.692Z,99912.09
2022-12-22T10:38:54.526Z,99912.00
2022-12-22T10:41:22.911Z,99908.66
2022-12-22T10:43:52.286Z,99911.56
2022-12-22T10:46:20.859Z,99905.75
2022-12-22T10:48:48.035Z,99911.66
2022-12-22T10:51:15.992Z,99912.94
2022-12-22T10:53:46.538Z,99900.22
2022-12-22T10:56:16.617Z,99904.16
2022-12-22T10:58:46.774Z,99899.31
2022-12-22T11:01:14.191Z,99890.06
2022-12-22T11:03:41.340Z,99888.88
2022-12-22T11:06:13.010Z,99886.03
2022-12-22T11:08:39.969Z,99890.31
2022-12-22T11:11:11.088Z,99885.88
2022-12-22T11:13:39.597Z,99878.25
2022-12-22T11:16:10.283Z,99874.06
2022-12-22T11:18:37.815Z,99874.34
2022-12-22T11:21:07.962Z,99861.63
2022-12-22T11:23:38.123Z,99850.50
2022-12-22T11:26:08.220Z,99846.31
2022-12-22T11:28:38.335Z,99833.78
2022-12-22T11:31:13.476Z,99836.03
2022-12-22T11:33:43.573Z,99831.22
2022-12-22T11:36:15.975Z,99835.13
2022-12-22T11:38:47.077Z,99834.72
2022-12-22T11:41:27.446Z,99835.81
2022-12-22T11:43:55.801Z,99846.63
2022-12-22T11:46:26.025Z,99845.06
2022-12-22T11:48:56.334Z,99845.88
2022-12-22T11:51:30.556Z,99851.75
2022-12-22T11:53:58.035Z,99834.75
2022-12-22T11:56:29.783Z,99831.94
2022-12-22T11:58:59.754Z,99833.19
2022-12-22T12:01:29.863Z,99833.63
2022-12-22T12:03:59.968Z,99826.78
2022-12-22T12:06:30.098Z,99820.31
2022-12-22T12:08:57.413Z,99814.47
2022-12-22T12:11:24.799Z,99820.00
2022-12-22T12:14:00.777Z,99815.31
2022-12-22T12:16:31.026Z,99811.28
2022-12-22T12:18:59.709Z,99803.59
2022-12-22T12:21:27.317Z,99793.28
2022-12-22T12:23:58.400Z,99791.09
2022-12-22T12:26:29.555Z,99786.25
2022-12-22T12:29:06.172Z,99782.44
2022-12-22T12:31:35.906Z,99769.66
2022-12-22T12:34:04.049Z,99773.53
2022-12-22T12:36:34.253Z,99771.31
2022-12-22T12:39:09.210Z,99762.81
2022-12-22T12:41:45.629Z,99772.16
2022-12-22T12:44:14.989Z,99765.69
2022-12-22T12:46:45.451Z,99754.91
2022-12-22T12:49:32.613Z,99755.16
2022-12-22T12:52:01.805Z,99747.44
2022-12-22T12:54:29.198Z,99756.97
2022-12-22T12:56:59.257Z,99760.25
2022-12-22T12:59:29.442Z,99757.59
2022-12-22T13:01:57.999Z,99769.81
2022-12-22T13:04:28.573Z,99766.16
2022-12-22T13:06:55.904Z,99762.69
2022-12-22T13:09:50.548Z,99762.88
2022-12-22T13:12:19.687Z,99763.47
2022-12-22T13:14:53.126Z,99762.03
2022-12-22T13:17:23.355Z,99759.59
2022-12-22T13:19:51.749Z,99760.59
2022-12-22T13:22:18.941Z,99757.97
2022-12-22T13:24:49.154Z,99745.56
2022-12-22T13:27:16.952Z,99751.28
2022-12-22T13:29:47.987Z,99758.00
2022-12-22T13:32:18.136Z,99754.16
2022-12-22T13:35:04.915Z,99751.31
2022-12-22T13:37:39.247Z,99755.22
2022-12-22T13:40:08.206Z,99754.63
2022-12-22T13:42:36.672Z,99752.81
2022-12-22T13:45:04.408Z,99754.44
2022-12-22T13:47:32.392Z,99758.91
2022-12-22T13:50:08.919Z,99754.44
2022-12-22T13:52:36.961Z,99744.69
2022-12-22T13:55:04.296Z,99743.66
2022-12-22T13:57:31.303Z,99744.47
2022-12-22T13:59:58.375Z,99745.09
2022-12-22T14:02:25.440Z,99752.22
2022-12-22T14:05:03.548Z,99752.22
2022-12-22T14:07:31.829Z,99748.75
2022-12-22T14:09:59.072Z,99741.00
2022-12-22T14:12:28.320Z,99739.41
2022-12-22T14:14:56.062Z,99743.88
2022-12-22T14:17:25.360Z,99735.13
2022-12-22T14:19:55.819Z,99741.41
2022-12-22T14:22:27.376Z,99735.31
2022-12-22T14:24:56.565Z,99739.78
2022-12-22T14:27:31.357Z,99741.81
2022-12-22T14:30:00.974Z,99735.72
2022-12-22T14:32:30.991Z,99741.00
2022-12-22T14:34:58.370Z,99734.28
2022-12-22T14:37:32.410Z,99742.38
2022-12-22T14:40:00.315Z,99737.88
2022-12-22T14:42:27.532Z,99742.38
2022-12-22T14:44:54.806Z,99734.84
2022-12-22T14:47:25.902Z,99730.78
2022-12-22T14:49:54.399Z,99731.78
2022-12-22T14:52:22.283Z,99739.53
2022-12-22T14:54:50.749Z,99735.84
2022-12-22T14:57:21.267Z,99741.34
2022-12-22T14:59:51.525Z,99743.97
2022-12-22T15:02:26.312Z,99736.06
2022-12-22T15:04:56.350Z,99731.16
2022-12-22T15:08:03.147Z,99751.09
2022-12-22T15:10:15.653Z,99740.72
2022-12-22T15:12:44.490Z,99740.06
2022-12-22T15:15:14.600Z,99749.03
2022-12-22T15:17:41.715Z,99741.13
2022-12-22T15:20:13.888Z,99742.13
2022-12-22T15:22:40.947Z,99743.75
2022-12-22T15:25:12.932Z,99737.03
2022-12-22T15:27:40.118Z,99746.75
2022-12-22T15:30:07.792Z,99740.66
2022-12-22T15:32:38.044Z,99748.81
2022-12-22T15:35:14.844Z,99737.59
2022-12-22T15:37:41.925Z,99739.84
2022-12-22T15:40:12.161Z,99742.72
2022-12-22T15:42:39.066Z,99745.34
2022-12-22T15:45:06.612Z,99743.06
2022-12-22T15:47:33.663Z,99743.91
2022-12-22T15:50:00.935Z,99740.06
2022-12-22T15:52:27.949Z,99743.53
2022-12-22T15:54:55.195Z,99737.22
2022-12-22T15:57:22.482Z,99726.66
2022-12-22T15:59:49.595Z,99738.44
2022-12-22T16:02:16.654Z,99733.16
2022-12-22T16:04:43.904Z,99730.69
2022-12-22T16:07:12.708Z,99732.72
2022-12-22T16:09:41.730Z,99729.28
2022-12-22T16:12:13.047Z,99732.91
2022-12-22T16:14:46.460Z,99740.66
2022-12-22T16:17:18.506Z,99736.16
2022-12-22T16:19:45.812Z,99737.19
2022-12-22T16:22:14.246Z,99730.09
2022-12-22T16:24:43.221Z,99727.44
2022-12-22T16:27:11.703Z,99730.09
2022-12-22T16:29:39.357Z,99744.47
2022-12-22T16:32:15.307Z,99744.88
2022-12-22T16:34:45.135Z,99752.81
2022-12-22T16:37:12.255Z,99742.84
2022-12-22T16:39:39.239Z,99755.84
2022-12-22T16:42:06.946Z,99756.28
2022-12-22T16:44:34.069Z,99757.09
2022-12-22T16:47:03.441Z,99746.72
2022-12-22T16:49:30.546Z,99753.03
2022-12-22T16:51:57.680Z,99748.75
2022-12-22T16:54:24.646Z,99746.94
2022-12-22T16:56:52.243Z,99759.50
2022-12-22T16:59:19.587Z,99768.06
2022-12-22T17:01:50.372Z,99772.94
2022-12-22T17:04:20.812Z,99774.75
2022-12-22T17:06:49.023Z,99783.69
2022-12-22T17:09:19.399Z,99789.59
2022-12-22T17:11:46.933Z,99788.19
2022-12-22T17:14:17.661Z,99790.00
2022-12-22T17:16:44.793Z,99795.06
2022-12-22T17:19:12.346Z,99794.25
2022-12-22T17:21:39.398Z,99795.69
2022-12-22T17:24:06.562Z,99799.16
2022-12-22T17:26:36.678Z,99806.06
2022-12-22T17:29:04.802Z,99796.34
2022-12-22T17:31:32.078Z,99799.78
2022-12-22T17:33:59.083Z,99807.91
2022-12-22T17:36:30.748Z,99799.97
2022-12-22T17:38:58.288Z,99798.75
2022-12-22T17:41:25.491Z,99797.16
2022-12-22T17:43:52.446Z,99811.13
2022-12-22T17:46:21.435Z,99799.78
2022-12-22T17:48:49.381Z,99801.63
2022-12-22T17:51:17.894Z,99804.44
2022-12-22T17:53:45.732Z,99809.72
2022-12-22T17:56:15.506Z,99810.53
2022-12-22T17:58:46.538Z,99810.13
2022-12-22T18:01:19.494Z,99811.78
2022-12-22T18:03:46.686Z,99811.13
2022-12-22T18:06:17.978Z,99811.78
2022-12-22T18:08:45.527Z,99823.16
2022-12-22T18:11:12.952Z,99819.28
2022-12-22T18:13:40.211Z,99819.28
2022-12-22T18:16:07.874Z,99838.38
2022-12-22T18:18:35.303Z,99841.22
2022-12-22T18:21:07.364Z,99843.88
2022-12-22T18:23:37.190Z,99846.50
2022-12-22T18:26:05.405Z,99853.59
2022-12-22T18:28:32.392Z,99863.53
2022-12-22T18:31:00.952Z,99862.34
2022-12-22T18:33:28.317Z,99866.00
2022-12-22T18:35:55.595Z,99859.88
2022-12-22T18:38:25.564Z,99853.16
2022-12-22T18:40:52.615Z,99859.69
2022-12-22T18:43:19.696Z,99850.75
2022-12-22T18:45:46.835Z,99862.75
2022-12-22T18:48:13.883Z,99856.25
2022-12-22T18:50:41.411Z,99855.59
2022-12-22T18:53:17.415Z,99843.41
2022-12-22T18:55:46.075Z,99841.78
2022-12-22T18:58:15.342Z,99840.16
2022-12-22T19:00:42.834Z,99842.81
2022-12-22T19:03:13.111Z,99848.69
2022-12-22T19:05:40.979Z,99842.41
2022-12-22T19:08:13.456Z,99846.03
2022-12-22T19:10:41.707Z,99849.50
2022-12-22T19:13:16.212Z,99858.44
2022-12-22T19:15:46.051Z,99847.06
2022-12-22T19:18:18.621Z,99840.16
2022-12-22T19:20:48.694Z,99839.34
2022-12-22T19:23:16.606Z,99865.53
2022-12-22T19:25:44.670Z,99859.25
2022-12-22T19:28:14.642Z,99870.44
2022-12-22T19:30:41.670Z,99865.16
2022-12-22T19:33:16.150Z,99876.72
2022-12-22T19:35:43.027Z,99887.28
2022-12-22T19:38:12.973Z,99888.94
2022-12-22T19:40:40.060Z,99892.56
2022-12-22T19:43:09.387Z,99889.13
2022-12-22T19:45:37.073Z,99894.22
2022-12-22T19:48:04.823Z,99912.69
2022-12-22T19:50:32.363Z,99889.75
2022-12-22T19:52:59.904Z,99901.94
2022-12-22T19:55:28.549Z,99891.38
2022-12-22T19:57:56.146Z,99891.38
2022-12-22T20:00:25.014Z,99893.00
2022-12-22T20:02:53.314Z,99902.56
2022-12-22T20:05:23.386Z,99892.81
2022-12-22T20:07:51.394Z,99895.63
2022-12-22T20:10:18.832Z,99899.31
2022-12-22T20:12:47.454Z,99904.59
2022-12-22T20:15:16.213Z,99901.94
2022-12-22T20:17:43.156Z,99904.13
2022-12-22T20:20:14.567Z,99903.31
2022-12-22T20:22:44.996Z,99905.78
2022-12-22T20:25:15.047Z,99907.41
2022-12-22T20:27:42.291Z,99905.59
2022-12-22T20:30:12.245Z,99905.19
2022-12-22T20:32:39.135Z,99902.78
2022-12-22T20:35:06.293Z,99892.38
2022-12-22T20:37:33.341Z,99899.50
2022-12-22T20:40:00.376Z,99902.13
2022-12-22T20:42:27.477Z,99909.41
2022-12-22T20:45:02.792Z,99914.50
2022-12-22T20:47:33.357Z,99916.16
2022-12-22T20:50:00.372Z,99917.16
2022-12-22T20:52:27.443Z,99925.06
2022-12-22T20:54:54.447Z,99921.63
2022-12-22T20:57:22.136Z,99921.78
2022-12-22T20:59:55.700Z,99931.53
2022-12-22T21:02:24.524Z,99929.94
2022-12-22T21:04:51.671Z,99931.75
2022-12-22T21:07:20.187Z,99933.56
2022-12-22T21:09:47.349Z,99933.38
2022-12-22T21:12:14.259Z,99926.47
2022-12-22T21:14:41.257Z,99936.22
2022-12-22T21:17:11.465Z,99931.94
2022-12-22T21:19:38.743Z,99932.94
2022-12-22T21:22:05.924Z,99938.41
2022-12-22T21:24:32.982Z,99954.25
2022-12-22T21:26:59.931Z,99957.69
2022-12-22T21:29:27.629Z,99964.81
2022-12-22T21:31:54.599Z,99970.88
2022-12-22T21:34:21.613Z,99966.44
2022-12-22T21:36:50.184Z,99969.88
2022-12-22T21:39:20.387Z,99969.47
2022-12-22T21:41:50.368Z,99970.09
2022-12-22T21:44:17.463Z,99986.72
2022-12-22T21:46:45.618Z,99989.19
2022-12-22T21:49:15.662Z,99993.66
2022-12-22T21:51:43.928Z,99989.19
2022-12-22T21:54:10.827Z,99990.84
2022-12-22T21:56:37.956Z,99993.66
2022-12-22T21:59:04.866Z,99990.19
2022-12-22T22:01:32.484Z,100001.78
2022-12-22T22:03:59.719Z,99993.22
2022-12-22T22:06:27.058Z,100006.59
2022-12-22T22:08:53.996Z,100001.31
2022-12-22T22:11:22.220Z,100005.78
2022-12-22T22:13:49.240Z,100009.25
2022-12-22T22:16:16.399Z,100013.69
2022-12-22T22:18:44.672Z,100021.44
2022-12-22T22:21:12.356Z,100027.53
2022-12-22T22:23:39.776Z,100021.63
2022-12-22T22:26:07.267Z,100023.66
2022-12-22T22:28:34.429Z,100022.38
2022-12-22T22:31:02.762Z,100012.63
2022-12-22T22:33:29.821Z,100016.91
2022-12-22T22:36:02.108Z,100003.69
2022-12-22T22:38:32.570Z,100002.88
2022-12-22T22:40:59.732Z,100009.19
2022-12-22T22:43:26.986Z,100011.84
2022-12-22T22:45:53.944Z,100021.56
2022-12-22T22:48:22.125Z,100017.13
2022-12-22T22:50:49.419Z,100023.19
2022-12-22T22:53:16.781Z,100024.00
2022-12-22T22:55:44.087Z,100026.66
2022-12-22T22:58:11.859Z,100026.84
2022-12-22T23:00:39.749Z,100031.31
2022-12-22T23:03:07.043Z,100031.31
2022-12-22T23:05:34.169Z,100027.03
2022-12-22T23:08:01.597Z,100040.88
2022-12-22T23:10:28.557Z,100032.94
2022-12-22T23:12:55.620Z,100031.31
2022-12-22T23:15:22.690Z,100030.31
2022-12-22T23:17:51.012Z,100020.53
2022-12-22T23:20:18.175Z,100035.22
2022-12-22T23:22:47.190Z,100037.19
2022-12-22T23:25:14.468Z,100036.38
2022-12-22T23:27:41.837Z,100039.22
2022-12-22T23:30:09.914Z,100047.16
2022-12-22T23:32:37.082Z,100050.59
2022-12-22T23:35:04.221Z,100053.44
2022-12-22T23:37:31.412Z,100050.97
2022-12-22T23:40:10.887Z,100048.31
2022-12-22T23:42:45.513Z,100047.50
2022-12-22T23:45:12.547Z,100046.88
2022-12-22T23:47:39.732Z,100059.09
2022-12-22T23:50:07.420Z,100069.81
2022-12-22T23:52:34.465Z,100069.19
2022-12-22T23:55:01.678Z,100076.91
2022-12-22T23:57:28.691Z,100075.09
2022-12-22T23:59:55.751Z,100077.91
